createdAt,value
2023-01-29T00:00:29.334Z,67.4
2023-01-29T00:01:46.385Z,67.3
2023-01-29T00:03:03.418Z,67
2023-01-29T00:04:20.327Z,66.9
2023-01-29T00:05:37.343Z,66.5
2023-01-29T00:06:54.368Z,65.9
2023-01-29T00:08:11.340Z,65.8
2023-01-29T00:09:28.375Z,66
2023-01-29T00:10:45.406Z,66
2023-01-29T00:12:02.357Z,66.1
2023-01-29T00:13:19.397Z,66.5
2023-01-29T00:14:36.342Z,67.2
2023-01-29T00:15:53.343Z,67.3
2023-01-29T00:17:10.463Z,67.3
2023-01-29T00:18:27.365Z,67.8
2023-01-29T00:19:44.341Z,68.2
2023-01-29T00:21:01.348Z,68.5
2023-01-29T00:22:18.407Z,68.6
2023-01-29T00:23:35.356Z,68.3
2023-01-29T00:24:52.370Z,68.1
2023-01-29T00:26:09.380Z,68.3
2023-01-29T00:27:26.391Z,68.7
2023-01-29T00:28:45.587Z,69.1
2023-01-29T00:30:04.573Z,69.4
2023-01-29T00:31:21.420Z,70.3
2023-01-29T00:32:38.405Z,70.9
2023-01-29T00:33:55.424Z,71
2023-01-29T00:35:12.355Z,71.2
2023-01-29T00:36:29.403Z,71.3
2023-01-29T00:37:46.384Z,71.5
2023-01-29T00:39:03.355Z,71.7
2023-01-29T00:40:20.435Z,71.6
2023-01-29T00:41:37.422Z,71.3
2023-01-29T00:42:54.367Z,70.7
2023-01-29T00:44:11.369Z,70.2
2023-01-29T00:45:28.392Z,69.7
2023-01-29T00:46:45.427Z,69.4
2023-01-29T00:48:02.381Z,69
2023-01-29T00:49:19.370Z,69
2023-01-29T00:50:36.484Z,69
2023-01-29T00:51:53.404Z,69.1
2023-01-29T00:53:10.416Z,69.1
2023-01-29T00:54:27.408Z,68.6
2023-01-29T00:55:44.428Z,68
2023-01-29T00:57:01.433Z,67.7
2023-01-29T00:58:18.847Z,67.3
2023-01-29T00:59:38.274Z,67.3
2023-01-29T01:00:55.480Z,67.3
2023-01-29T01:02:14.592Z,67.1
2023-01-29T01:03:34.035Z,66.7
2023-01-29T01:04:53.793Z,66.6
2023-01-29T01:06:12.511Z,66.4
2023-01-29T01:07:30.964Z,66
2023-01-29T01:08:48.011Z,65.9
2023-01-29T01:10:04.465Z,65.7
2023-01-29T01:11:21.433Z,65.6
2023-01-29T01:12:38.451Z,65.6
2023-01-29T01:13:55.456Z,65.5
2023-01-29T01:15:12.409Z,65.5
2023-01-29T01:16:29.417Z,65.8
2023-01-29T01:17:46.432Z,65.6
2023-01-29T01:19:03.453Z,65.7
2023-01-29T01:20:20.410Z,65.8
2023-01-29T01:21:37.433Z,65.8
2023-01-29T01:22:54.425Z,65.9
2023-01-29T01:24:11.518Z,66.3
2023-01-29T01:25:28.416Z,66.5
2023-01-29T01:26:45.419Z,66.5
2023-01-29T01:28:02.483Z,66.7
2023-01-29T01:29:19.447Z,67
2023-01-29T01:30:36.512Z,67.1
2023-01-29T01:31:53.500Z,67.1
2023-01-29T01:33:10.440Z,67.1
2023-01-29T01:34:27.472Z,67
2023-01-29T01:35:44.462Z,67.2
2023-01-29T01:37:01.425Z,67.1
2023-01-29T01:38:18.427Z,67.3
2023-01-29T01:39:35.429Z,67.3
2023-01-29T01:40:52.551Z,67.8
2023-01-29T01:42:09.440Z,68.2
2023-01-29T01:43:26.541Z,68.4
2023-01-29T01:44:43.435Z,68.3
2023-01-29T01:46:00.559Z,67.9
2023-01-29T01:47:17.451Z,67.5
2023-01-29T01:48:34.521Z,66.8
2023-01-29T01:49:51.485Z,66.4
2023-01-29T01:51:08.487Z,66.2
2023-01-29T01:52:25.455Z,66
2023-01-29T01:53:42.550Z,65.4
2023-01-29T01:54:59.460Z,64.9
2023-01-29T01:56:16.449Z,64.5
2023-01-29T01:57:33.475Z,64.1
2023-01-29T01:58:50.665Z,64.1
2023-01-29T02:00:07.461Z,64.3
2023-01-29T02:01:25.793Z,64.4
2023-01-29T02:02:41.473Z,64.6
2023-01-29T02:03:58.517Z,64.7
2023-01-29T02:05:15.459Z,64.7
2023-01-29T02:06:32.486Z,64.5
2023-01-29T02:07:49.488Z,64.5
2023-01-29T02:09:06.579Z,64.3
2023-01-29T02:10:23.599Z,64.3
2023-01-29T02:11:40.487Z,64.3
2023-01-29T02:12:57.478Z,64.2
2023-01-29T02:14:14.565Z,64.2
2023-01-29T02:15:31.486Z,64.2
2023-01-29T02:16:48.484Z,63.8
2023-01-29T02:18:05.513Z,64
2023-01-29T02:19:22.524Z,64
2023-01-29T02:20:39.519Z,64.6
2023-01-29T02:21:56.495Z,65.1
2023-01-29T02:23:13.497Z,65.6
2023-01-29T02:24:30.599Z,65.8
2023-01-29T02:25:47.543Z,66
2023-01-29T02:27:04.517Z,66.2
2023-01-29T02:28:21.541Z,66.2
2023-01-29T02:29:38.534Z,66.2
2023-01-29T02:30:55.632Z,66
2023-01-29T02:32:12.515Z,66
2023-01-29T02:33:29.532Z,66.1
2023-01-29T02:34:46.498Z,66.4
2023-01-29T02:36:03.623Z,66.1
2023-01-29T02:37:20.523Z,65.8
2023-01-29T02:38:37.526Z,65.7
2023-01-29T02:39:54.517Z,65.9
2023-01-29T02:41:11.598Z,66.4
2023-01-29T02:42:28.654Z,66.8
2023-01-29T02:43:45.538Z,67.4
2023-01-29T02:45:02.557Z,67.9
2023-01-29T02:46:19.589Z,68.3
2023-01-29T02:47:36.563Z,68.7
2023-01-29T02:48:53.514Z,69
2023-01-29T02:50:10.531Z,69.1
2023-01-29T02:51:27.562Z,68.7
2023-01-29T02:52:44.655Z,68.2
2023-01-29T02:54:01.564Z,67.7
2023-01-29T02:55:18.552Z,67.2
2023-01-29T02:56:35.530Z,66.9
2023-01-29T02:57:52.544Z,66.7
2023-01-29T02:59:09.546Z,66.8
2023-01-29T03:00:26.657Z,66.7
2023-01-29T03:01:43.563Z,66.5
2023-01-29T03:03:00.536Z,66.5
2023-01-29T03:04:17.557Z,66.1
2023-01-29T03:05:34.666Z,65.5
2023-01-29T03:06:51.582Z,65
2023-01-29T03:08:08.554Z,64.5
2023-01-29T03:09:25.570Z,64.1
2023-01-29T03:10:42.713Z,64
2023-01-29T03:11:59.633Z,64
2023-01-29T03:13:16.588Z,64
2023-01-29T03:14:33.544Z,64.2
2023-01-29T03:15:50.608Z,64.1
2023-01-29T03:17:07.641Z,63.8
2023-01-29T03:18:24.610Z,63.6
2023-01-29T03:19:41.579Z,63.5
2023-01-29T03:20:58.584Z,63.2
2023-01-29T03:22:15.621Z,62.9
2023-01-29T03:23:32.639Z,62.7
2023-01-29T03:24:49.564Z,62.6
2023-01-29T03:26:06.604Z,62.7
2023-01-29T03:27:23.557Z,62.8
2023-01-29T03:28:41.232Z,62.7
2023-01-29T03:29:57.625Z,62.8
2023-01-29T03:31:14.702Z,62.9
2023-01-29T03:32:31.588Z,62.3
2023-01-29T03:33:48.618Z,62
2023-01-29T03:35:05.589Z,62.2
2023-01-29T03:36:22.573Z,62.2
2023-01-29T03:37:39.622Z,61.9
2023-01-29T03:38:56.623Z,61.7
2023-01-29T03:40:13.942Z,61.5
2023-01-29T03:41:30.643Z,61.3
2023-01-29T03:42:47.656Z,61.2
2023-01-29T03:44:04.643Z,61.3
2023-01-29T03:45:21.613Z,61.5
2023-01-29T03:46:38.600Z,61.7
2023-01-29T03:47:55.596Z,61.6
2023-01-29T03:49:12.675Z,61.8
2023-01-29T03:50:29.641Z,61.7
2023-01-29T03:51:46.610Z,61.7
2023-01-29T03:53:03.625Z,61.3
2023-01-29T03:54:20.645Z,60.7
2023-01-29T03:55:37.678Z,60.7
2023-01-29T03:56:54.623Z,60.9
2023-01-29T03:58:11.615Z,61.4
2023-01-29T03:59:28.639Z,61.8
2023-01-29T04:00:45.610Z,62.1
2023-01-29T04:02:02.636Z,62.2
2023-01-29T04:03:19.621Z,62.6
2023-01-29T04:04:36.651Z,62.9
2023-01-29T04:05:53.626Z,63.5
2023-01-29T04:07:10.649Z,63.6
2023-01-29T04:08:27.660Z,63.5
2023-01-29T04:09:44.671Z,63.1
2023-01-29T04:11:01.661Z,62.6
2023-01-29T04:12:18.611Z,62.4
2023-01-29T04:13:35.632Z,62.1
2023-01-29T04:14:52.675Z,62
2023-01-29T04:16:09.703Z,61.7
2023-01-29T04:17:26.675Z,61.3
2023-01-29T04:18:43.697Z,61
2023-01-29T04:20:00.701Z,60.8
2023-01-29T04:21:17.642Z,60.6
2023-01-29T04:22:34.654Z,60.3
2023-01-29T04:23:51.639Z,60.4
2023-01-29T04:25:08.709Z,60.4
2023-01-29T04:26:25.642Z,60.2
2023-01-29T04:27:42.711Z,59.9
2023-01-29T04:28:59.702Z,59.9
2023-01-29T04:30:16.924Z,59.7
2023-01-29T04:31:34.015Z,59.6
2023-01-29T04:32:50.669Z,59.6
2023-01-29T04:34:07.656Z,59.5
2023-01-29T04:35:24.649Z,59.6
2023-01-29T04:36:41.732Z,59.9
2023-01-29T04:37:58.682Z,60.1
2023-01-29T04:39:15.654Z,60.3
2023-01-29T04:40:32.654Z,60.3
2023-01-29T04:41:49.711Z,60.3
2023-01-29T04:43:06.689Z,60.1
2023-01-29T04:44:23.680Z,60.1
2023-01-29T04:45:40.711Z,59.9
2023-01-29T04:46:57.676Z,59.8
2023-01-29T04:48:14.673Z,59.8
2023-01-29T04:49:31.681Z,59.8
2023-01-29T04:50:48.701Z,59.8
2023-01-29T04:52:05.672Z,59.9
2023-01-29T04:53:22.686Z,59.7
2023-01-29T04:54:39.687Z,59.6
2023-01-29T04:55:56.710Z,59.4
2023-01-29T04:57:13.855Z,59.6
2023-01-29T04:58:30.693Z,60
2023-01-29T04:59:47.715Z,60.3
2023-01-29T05:01:04.741Z,60.6
2023-01-29T05:02:21.717Z,60.6
2023-01-29T05:03:38.700Z,60.7
2023-01-29T05:04:55.719Z,60.5
2023-01-29T05:06:12.800Z,60.5
2023-01-29T05:07:29.739Z,60.6
2023-01-29T05:08:46.690Z,61
2023-01-29T05:10:03.706Z,61.7
2023-01-29T05:11:20.724Z,62.3
2023-01-29T05:12:37.732Z,62.7
2023-01-29T05:13:54.698Z,63
2023-01-29T05:15:11.723Z,63.5
2023-01-29T05:16:28.734Z,63.8
2023-01-29T05:17:45.706Z,64
2023-01-29T05:19:02.703Z,64.3
2023-01-29T05:20:19.821Z,64.6
2023-01-29T05:21:36.698Z,64.8
2023-01-29T05:22:53.826Z,65
2023-01-29T05:24:10.793Z,64.8
2023-01-29T05:25:27.774Z,64.6
2023-01-29T05:26:44.730Z,64.2
2023-01-29T05:28:01.751Z,63.7
2023-01-29T05:29:18.749Z,63.6
2023-01-29T05:30:35.866Z,63.2
2023-01-29T05:31:52.880Z,63.2
2023-01-29T05:33:09.759Z,63
2023-01-29T05:34:26.730Z,62.8
2023-01-29T05:35:43.768Z,62.6
2023-01-29T05:37:00.733Z,62.3
2023-01-29T05:38:17.793Z,61.9
2023-01-29T05:39:34.759Z,61.7
2023-01-29T05:40:51.741Z,61.5
2023-01-29T05:42:08.727Z,61.5
2023-01-29T05:43:25.733Z,61.3
2023-01-29T05:44:42.799Z,61.2
2023-01-29T05:45:59.758Z,61.1
2023-01-29T05:47:17.329Z,61
2023-01-29T05:48:33.790Z,61
2023-01-29T05:49:50.839Z,61.1
2023-01-29T05:51:07.784Z,61.1
2023-01-29T05:52:24.803Z,61
2023-01-29T05:53:41.756Z,60.6
2023-01-29T05:54:58.771Z,60.3
2023-01-29T05:56:15.760Z,60.6
2023-01-29T05:57:32.793Z,60.8
2023-01-29T05:58:49.751Z,61
2023-01-29T06:00:06.763Z,61.1
2023-01-29T06:01:23.770Z,61.4
2023-01-29T06:02:40.832Z,61.2
2023-01-29T06:03:57.757Z,61.3
2023-01-29T06:05:14.799Z,61.4
2023-01-29T06:06:31.776Z,61.5
2023-01-29T06:07:48.857Z,61.5
2023-01-29T06:09:05.819Z,61.5
2023-01-29T06:10:22.780Z,61.8
2023-01-29T06:11:39.814Z,61.8
2023-01-29T06:12:56.810Z,61.8
2023-01-29T06:14:13.781Z,61.9
2023-01-29T06:15:30.788Z,61.9
2023-01-29T06:16:47.780Z,61.9
2023-01-29T06:18:04.815Z,62.1
2023-01-29T06:19:21.791Z,62.3
2023-01-29T06:20:38.817Z,62.8
2023-01-29T06:21:55.829Z,63.3
2023-01-29T06:23:12.811Z,63.6
2023-01-29T06:24:29.834Z,63.6
2023-01-29T06:25:46.786Z,63.6
2023-01-29T06:27:03.789Z,63.8
2023-01-29T06:28:20.820Z,63.9
2023-01-29T06:29:37.842Z,63.9
2023-01-29T06:30:54.847Z,64
2023-01-29T06:32:11.890Z,64.3
2023-01-29T06:33:28.830Z,64.3
2023-01-29T06:34:47.931Z,64.5
2023-01-29T06:36:02.807Z,64.1
2023-01-29T06:37:19.854Z,63.8
2023-01-29T06:38:36.807Z,63.3
2023-01-29T06:39:53.876Z,63
2023-01-29T06:41:10.817Z,62.5
2023-01-29T06:42:28.048Z,62
2023-01-29T06:43:44.790Z,61.7
2023-01-29T06:45:01.869Z,61.7
2023-01-29T06:46:18.840Z,61.4
2023-01-29T06:47:35.866Z,61.5
2023-01-29T06:48:52.841Z,61.5
2023-01-29T06:50:09.856Z,61.3
2023-01-29T06:51:26.854Z,61.3
2023-01-29T06:52:43.894Z,61.4
2023-01-29T06:54:00.834Z,61.3
2023-01-29T06:55:17.835Z,61.1
2023-01-29T06:56:34.825Z,61.2
2023-01-29T06:57:51.918Z,61.2
2023-01-29T06:59:08.841Z,61.3
2023-01-29T07:00:25.870Z,61.2
2023-01-29T07:01:42.975Z,61.1
2023-01-29T07:02:59.841Z,61.1
2023-01-29T07:04:16.839Z,61.2
2023-01-29T07:05:33.942Z,61.4
2023-01-29T07:06:50.987Z,61.7
2023-01-29T07:08:07.897Z,61.4
2023-01-29T07:09:24.846Z,61.3
2023-01-29T07:10:42.057Z,61.4
2023-01-29T07:11:58.891Z,61.6
2023-01-29T07:13:15.867Z,61.6
2023-01-29T07:14:32.846Z,61.8
2023-01-29T07:15:49.888Z,61.9
2023-01-29T07:17:06.870Z,61.9
2023-01-29T07:18:23.874Z,61.9
2023-01-29T07:19:40.883Z,62
2023-01-29T07:20:57.885Z,61.9
2023-01-29T07:22:14.857Z,61.9
2023-01-29T07:23:31.927Z,61.6
2023-01-29T07:24:48.875Z,61.5
2023-01-29T07:26:05.912Z,61.3
2023-01-29T07:27:22.876Z,61.4
2023-01-29T07:28:39.928Z,61.3
2023-01-29T07:29:56.855Z,61
2023-01-29T07:31:13.997Z,60.7
2023-01-29T07:32:30.995Z,60.8
2023-01-29T07:33:47.912Z,61
2023-01-29T07:35:04.883Z,61
2023-01-29T07:36:21.868Z,61.1
2023-01-29T07:37:38.897Z,61
2023-01-29T07:38:55.910Z,61.1
2023-01-29T07:40:12.939Z,61.4
2023-01-29T07:41:29.933Z,61.7
2023-01-29T07:42:46.897Z,62
2023-01-29T07:44:03.923Z,62.3
2023-01-29T07:45:20.938Z,62.8
2023-01-29T07:46:37.985Z,62.9
2023-01-29T07:47:54.900Z,63
2023-01-29T07:49:12.049Z,63.5
2023-01-29T07:50:29.047Z,63.8
2023-01-29T07:51:46.093Z,64.3
2023-01-29T07:53:02.917Z,64.4
2023-01-29T07:54:20.197Z,64.1
2023-01-29T07:55:37.007Z,63.8
2023-01-29T07:56:54.079Z,63.7
2023-01-29T07:58:11.052Z,63.7
2023-01-29T07:59:27.925Z,63.6
2023-01-29T08:00:45.053Z,64
2023-01-29T08:02:02.075Z,63.7
2023-01-29T08:03:19.033Z,63.6
2023-01-29T08:04:36.060Z,63.4
2023-01-29T08:05:53.031Z,63.2
2023-01-29T08:07:09.949Z,63.1
2023-01-29T08:08:26.964Z,63.2
2023-01-29T08:09:43.942Z,63
2023-01-29T08:11:00.916Z,63
2023-01-29T08:12:18.007Z,62.8
2023-01-29T08:13:35.046Z,62.6
2023-01-29T08:14:52.129Z,62.5
2023-01-29T08:16:09.040Z,62.6
2023-01-29T08:17:26.046Z,62.3
2023-01-29T08:18:43.100Z,62.3
2023-01-29T08:20:00.018Z,62.7
2023-01-29T08:21:16.935Z,62.7
2023-01-29T08:22:33.922Z,62.7
2023-01-29T08:23:50.966Z,62.9
2023-01-29T08:25:08.809Z,63.1
2023-01-29T08:26:25.049Z,63.4
2023-01-29T08:27:42.033Z,63.5
2023-01-29T08:28:58.985Z,63.6
2023-01-29T08:30:16.953Z,63.7
2023-01-29T08:31:33.237Z,63.5
2023-01-29T08:32:49.987Z,63.7
2023-01-29T08:34:07.006Z,63.9
2023-01-29T08:35:23.978Z,64
2023-01-29T08:36:40.965Z,63.5
2023-01-29T08:37:58.005Z,63.1
2023-01-29T08:39:14.965Z,62.7
2023-01-29T08:40:32.037Z,62.6
2023-01-29T08:41:48.964Z,62.6
2023-01-29T08:43:07.728Z,62.7
2023-01-29T08:44:23.031Z,62.7
2023-01-29T08:45:40.153Z,62.2
2023-01-29T08:46:57.281Z,61.9
2023-01-29T08:48:13.967Z,62.1
2023-01-29T08:49:31.020Z,62.3
2023-01-29T08:50:48.353Z,62.2
2023-01-29T08:52:05.339Z,61.7
2023-01-29T08:53:22.094Z,60.9
2023-01-29T08:54:39.070Z,60.2
2023-01-29T08:55:56.425Z,60
2023-01-29T08:57:13.470Z,60.1
2023-01-29T08:58:30.225Z,60.3
2023-01-29T08:59:47.309Z,60.6
2023-01-29T09:01:04.438Z,60.9
2023-01-29T09:02:21.310Z,61.5
2023-01-29T09:03:38.276Z,61.8
2023-01-29T09:04:55.310Z,62.4
2023-01-29T09:06:12.150Z,62.9
2023-01-29T09:07:29.372Z,63.1
2023-01-29T09:08:46.028Z,63.3
2023-01-29T09:10:03.093Z,63.2
2023-01-29T09:11:20.148Z,63
2023-01-29T09:12:37.094Z,62.7
2023-01-29T09:13:54.030Z,62.3
2023-01-29T09:15:11.394Z,61.7
2023-01-29T09:16:28.341Z,61.8
2023-01-29T09:17:45.306Z,61.7
2023-01-29T09:19:02.065Z,61.4
2023-01-29T09:20:19.139Z,60.9
2023-01-29T09:21:36.000Z,60.4
2023-01-29T09:22:53.171Z,60.1
2023-01-29T09:24:10.201Z,60.1
2023-01-29T09:25:27.078Z,60.4
2023-01-29T09:26:44.151Z,60.5
2023-01-29T09:28:01.057Z,61
2023-01-29T09:29:18.169Z,61.2
2023-01-29T09:30:35.108Z,61.2
2023-01-29T09:31:52.172Z,61.2
2023-01-29T09:33:09.044Z,61.2
2023-01-29T09:34:26.084Z,61.3
2023-01-29T09:35:43.149Z,61.1
2023-01-29T09:37:00.088Z,61
2023-01-29T09:38:17.046Z,61.3
2023-01-29T09:39:34.068Z,61.7
2023-01-29T09:40:51.164Z,62.2
2023-01-29T09:42:08.151Z,62.4
2023-01-29T09:43:25.064Z,62.4
2023-01-29T09:44:42.149Z,62.7
2023-01-29T09:45:59.157Z,62.7
2023-01-29T09:47:16.161Z,62.8
2023-01-29T09:48:33.083Z,62.7
2023-01-29T09:49:50.089Z,62.1
2023-01-29T09:51:07.184Z,61.6
2023-01-29T09:52:24.107Z,61.7
2023-01-29T09:53:41.073Z,61.5
2023-01-29T09:54:58.071Z,61.6
2023-01-29T09:56:15.127Z,61.6
2023-01-29T09:57:32.114Z,61.8
2023-01-29T09:58:49.083Z,61.6
2023-01-29T10:00:06.068Z,61.3
2023-01-29T10:01:23.190Z,60.6
2023-01-29T10:02:40.063Z,60
2023-01-29T10:03:57.145Z,59.2
2023-01-29T10:05:14.338Z,58.5
2023-01-29T10:06:31.246Z,57.3
2023-01-29T10:07:48.068Z,57.2
2023-01-29T10:09:05.199Z,57
2023-01-29T10:10:22.074Z,56.5
2023-01-29T10:11:39.113Z,56.4
2023-01-29T10:12:56.086Z,56.6
2023-01-29T10:14:13.132Z,56.9
2023-01-29T10:15:30.177Z,57.1
2023-01-29T10:16:47.137Z,57.7
2023-01-29T10:18:04.165Z,58.1
2023-01-29T10:19:21.092Z,58.7
2023-01-29T10:20:38.123Z,59.1
2023-01-29T10:21:55.155Z,59.4
2023-01-29T10:23:12.101Z,59.5
2023-01-29T10:24:29.214Z,59.6
2023-01-29T10:25:46.108Z,59.2
2023-01-29T10:27:03.157Z,59.2
2023-01-29T10:28:20.191Z,59.3
2023-01-29T10:29:37.104Z,59.1
2023-01-29T10:30:54.206Z,59
2023-01-29T10:32:11.234Z,58.8
2023-01-29T10:33:29.522Z,58.8
2023-01-29T10:34:45.114Z,58.4
2023-01-29T10:36:02.114Z,58.4
2023-01-29T10:37:19.145Z,58.2
2023-01-29T10:38:36.139Z,58
2023-01-29T10:39:53.122Z,57.8
2023-01-29T10:41:10.127Z,57.9
2023-01-29T10:42:27.139Z,57.7
2023-01-29T10:43:44.180Z,58
2023-01-29T10:45:01.196Z,58.2
2023-01-29T10:46:18.136Z,58.3
2023-01-29T10:47:35.246Z,58.4
2023-01-29T10:48:52.234Z,58.4
2023-01-29T10:50:09.156Z,58.3
2023-01-29T10:51:26.165Z,58.7
2023-01-29T10:52:43.207Z,58.8
2023-01-29T10:54:00.151Z,58.7
2023-01-29T10:55:17.561Z,58.8
2023-01-29T10:56:34.164Z,58.9
2023-01-29T10:57:51.135Z,58.9
2023-01-29T10:59:08.249Z,58.9
2023-01-29T11:00:25.162Z,59.3
2023-01-29T11:01:42.231Z,59.4
2023-01-29T11:02:59.247Z,59.6
2023-01-29T11:04:16.210Z,59.5
2023-01-29T11:05:33.329Z,59.6
2023-01-29T11:06:50.694Z,59.6
2023-01-29T11:08:07.132Z,59.2
2023-01-29T11:09:24.209Z,58.5
2023-01-29T11:10:41.146Z,58.6
2023-01-29T11:11:58.187Z,58.8
2023-01-29T11:13:15.177Z,59
2023-01-29T11:14:32.184Z,58.4
2023-01-29T11:15:49.142Z,58.1
2023-01-29T11:17:06.204Z,57.7
2023-01-29T11:18:23.155Z,57.6
2023-01-29T11:19:40.189Z,57.6
2023-01-29T11:20:57.589Z,57.5
2023-01-29T11:22:14.196Z,57.6
2023-01-29T11:23:31.232Z,57.7
2023-01-29T11:24:48.188Z,58
2023-01-29T11:26:05.200Z,58.2
2023-01-29T11:27:22.148Z,58.6
2023-01-29T11:28:39.238Z,59
2023-01-29T11:29:56.203Z,59.3
2023-01-29T11:31:13.239Z,59.5
2023-01-29T11:32:30.214Z,59.9
2023-01-29T11:33:47.228Z,60.2
2023-01-29T11:35:04.179Z,60.8
2023-01-29T11:36:21.220Z,61.5
2023-01-29T11:37:38.182Z,61.9
2023-01-29T11:38:55.346Z,61.9
2023-01-29T11:40:12.221Z,61.7
2023-01-29T11:41:29.177Z,61.1
2023-01-29T11:42:46.204Z,60.7
2023-01-29T11:44:03.208Z,60.1
2023-01-29T11:45:20.240Z,60
2023-01-29T11:46:37.271Z,60.5
2023-01-29T11:47:54.265Z,60.5
2023-01-29T11:49:20.455Z,60.5
2023-01-29T11:50:28.221Z,60.7
2023-01-29T11:51:45.244Z,60.8
2023-01-29T11:53:02.263Z,61.2
2023-01-29T11:54:19.232Z,61.6
2023-01-29T11:55:49.663Z,61.8
2023-01-29T11:56:53.274Z,61.5
2023-01-29T11:58:10.222Z,61.5
2023-01-29T11:59:27.259Z,61.6
2023-01-29T12:00:44.202Z,61.2
2023-01-29T12:02:01.222Z,61.5
2023-01-29T12:03:18.234Z,61.8
2023-01-29T12:04:35.279Z,62.6
2023-01-29T12:05:52.424Z,63.5
2023-01-29T12:07:09.224Z,64.1
2023-01-29T12:08:26.301Z,64
2023-01-29T12:09:43.275Z,64
2023-01-29T12:11:00.237Z,63.8
2023-01-29T12:12:17.238Z,63.6
2023-01-29T12:13:34.216Z,63.7
2023-01-29T12:14:51.259Z,63.7
2023-01-29T12:16:08.422Z,64.1
2023-01-29T12:17:25.264Z,64.1
2023-01-29T12:18:42.310Z,64.1
2023-01-29T12:19:59.234Z,64.5
2023-01-29T12:21:16.251Z,64.9
2023-01-29T12:22:33.287Z,65.2
2023-01-29T12:23:50.321Z,65.2
2023-01-29T12:25:07.264Z,65.4
2023-01-29T12:26:24.373Z,65.9
2023-01-29T12:27:41.252Z,66.3
2023-01-29T12:28:58.300Z,66.9
2023-01-29T12:30:15.470Z,67.7
2023-01-29T12:31:32.337Z,68
2023-01-29T12:32:49.276Z,68.3
2023-01-29T12:34:06.317Z,68.3
2023-01-29T12:35:23.228Z,68.3
2023-01-29T12:36:40.327Z,69.1
2023-01-29T12:37:57.250Z,69.8
2023-01-29T12:39:14.323Z,70.2
2023-01-29T12:40:31.292Z,70.5
2023-01-29T12:41:48.304Z,70.6
2023-01-29T12:43:05.323Z,70.5
2023-01-29T12:44:22.242Z,70.5
2023-01-29T12:45:39.302Z,70.4
2023-01-29T12:46:56.346Z,70.3
2023-01-29T12:48:13.525Z,70.3
2023-01-29T12:49:30.306Z,70.5
2023-01-29T12:50:47.276Z,70.1
2023-01-29T12:52:04.288Z,69.8
2023-01-29T12:53:21.305Z,69.7
2023-01-29T12:54:38.285Z,69.1
2023-01-29T12:55:55.306Z,68.8
2023-01-29T12:57:12.249Z,69.1
2023-01-29T12:58:29.366Z,69
2023-01-29T12:59:46.299Z,68.8
2023-01-29T13:01:03.403Z,68.7
2023-01-29T13:02:20.304Z,68.8
2023-01-29T13:03:37.423Z,68.5
2023-01-29T13:04:54.266Z,68.6
2023-01-29T13:06:11.283Z,68.4
2023-01-29T13:07:28.288Z,68.1
2023-01-29T13:08:45.351Z,68.3
2023-01-29T13:10:02.308Z,68.1
2023-01-29T13:11:19.288Z,67.9
2023-01-29T13:12:36.309Z,67.3
2023-01-29T13:13:54.576Z,67
2023-01-29T13:15:10.328Z,66.7
2023-01-29T13:16:27.400Z,66.5
2023-01-29T13:17:44.303Z,66.2
2023-01-29T13:19:01.647Z,66.2
2023-01-29T13:20:18.791Z,65.8
2023-01-29T13:21:35.459Z,66
2023-01-29T13:22:52.378Z,66.1
2023-01-29T13:24:09.678Z,65.8
2023-01-29T13:25:26.377Z,65.7
2023-01-29T13:26:43.463Z,65.4
2023-01-29T13:28:00.715Z,65
2023-01-29T13:29:17.395Z,64.9
2023-01-29T13:30:34.404Z,64.8
2023-01-29T13:31:51.392Z,64.6
2023-01-29T13:33:09.428Z,64.5
2023-01-29T13:34:25.385Z,64.5
2023-01-29T13:35:42.660Z,64.5
2023-01-29T13:37:00.208Z,64.7
2023-01-29T13:38:17.348Z,64.8
2023-01-29T13:39:34.851Z,64.8
2023-01-29T13:40:51.775Z,64.8
2023-01-29T13:42:08.737Z,64.7
2023-01-29T13:43:25.823Z,64.7
2023-01-29T13:44:42.539Z,64.5
2023-01-29T13:45:59.941Z,64.5
2023-01-29T13:47:16.535Z,64.5
2023-01-29T13:48:33.311Z,64.8
2023-01-29T13:49:50.983Z,64.9
2023-01-29T13:51:07.362Z,65.2
2023-01-29T13:52:24.832Z,65.1
2023-01-29T13:53:41.352Z,65
2023-01-29T13:54:58.809Z,64.8
2023-01-29T13:56:15.876Z,65.3
2023-01-29T13:57:32.349Z,65.5
2023-01-29T13:58:49.683Z,65.8
2023-01-29T14:00:06.669Z,66
2023-01-29T14:01:23.809Z,66.2
2023-01-29T14:02:40.437Z,66.5
2023-01-29T14:04:05.681Z,66.2
2023-01-29T14:05:14.719Z,66.2
2023-01-29T14:06:31.470Z,66.4
2023-01-29T14:07:48.765Z,66.3
2023-01-29T14:09:05.828Z,66.3
2023-01-29T14:10:22.781Z,66.3
2023-01-29T14:11:39.362Z,66.6
2023-01-29T14:12:56.441Z,67.8
2023-01-29T14:14:13.367Z,68.3
2023-01-29T14:15:30.423Z,68.5
2023-01-29T14:16:47.439Z,68.7
2023-01-29T14:18:04.469Z,68.7
2023-01-29T14:19:21.367Z,68.7
2023-01-29T14:20:45.413Z,68.5
2023-01-29T14:21:55.370Z,67.8
2023-01-29T14:23:12.407Z,67.3
2023-01-29T14:24:29.413Z,66.8
2023-01-29T14:25:46.391Z,66.6
2023-01-29T14:27:03.452Z,66.2
2023-01-29T14:28:20.402Z,66.2
2023-01-29T14:29:37.406Z,66.3
2023-01-29T14:30:54.564Z,66.1
2023-01-29T14:32:11.427Z,66
2023-01-29T14:33:28.400Z,66
2023-01-29T14:34:45.428Z,66
2023-01-29T14:36:02.406Z,66.1
2023-01-29T14:37:20.158Z,66
2023-01-29T14:38:37.807Z,65.8
2023-01-29T14:39:54.580Z,65.7
2023-01-29T14:41:11.816Z,65.3
2023-01-29T14:42:28.984Z,65.3
2023-01-29T14:43:45.737Z,65.5
2023-01-29T14:45:02.945Z,65.5
2023-01-29T14:46:19.448Z,65.5
2023-01-29T14:47:36.998Z,65.5
2023-01-29T14:48:54.869Z,65.5
2023-01-29T14:50:12.008Z,65.7
2023-01-29T14:51:29.706Z,66.2
2023-01-29T14:52:46.977Z,66.7
2023-01-29T14:54:03.667Z,67.3
2023-01-29T14:55:20.453Z,68.1
2023-01-29T14:56:37.892Z,69
2023-01-29T14:57:54.978Z,69.7
2023-01-29T14:59:11.420Z,70
2023-01-29T15:00:29.897Z,69.9
2023-01-29T15:01:46.586Z,69.8
2023-01-29T15:03:03.854Z,69.8
2023-01-29T15:04:20.625Z,69.8
2023-01-29T15:05:38.032Z,70.3
2023-01-29T15:06:54.458Z,70.7
2023-01-29T15:08:11.901Z,71.1
2023-01-29T15:09:36.302Z,71.2
2023-01-29T15:10:45.909Z,71.6
2023-01-29T15:12:02.862Z,71.9
2023-01-29T15:13:19.479Z,72.5
2023-01-29T15:14:36.641Z,73.1
2023-01-29T15:15:53.971Z,73.8
2023-01-29T15:17:10.467Z,74.4
2023-01-29T15:18:27.488Z,75
2023-01-29T15:19:44.908Z,75.1
2023-01-29T15:21:02.992Z,75.3
2023-01-29T15:22:18.444Z,75.4
2023-01-29T15:23:35.743Z,75.6
2023-01-29T15:24:52.559Z,75.6
2023-01-29T15:26:09.982Z,75.3
2023-01-29T15:27:26.470Z,75.4
2023-01-29T15:28:47.145Z,75.6
2023-01-29T15:30:00.607Z,75.7
2023-01-29T15:31:17.643Z,75.8
2023-01-29T15:32:34.875Z,75.7
2023-01-29T15:33:51.520Z,75.7
2023-01-29T15:35:08.696Z,76
2023-01-29T15:36:25.475Z,75.9
2023-01-29T15:37:42.495Z,76.3
2023-01-29T15:38:59.452Z,76.7
2023-01-29T15:40:16.508Z,76.9
2023-01-29T15:41:33.500Z,76.8
2023-01-29T15:42:50.517Z,77
2023-01-29T15:44:08.035Z,76.9
2023-01-29T15:45:26.081Z,77.1
2023-01-29T15:46:42.520Z,77
2023-01-29T15:47:59.506Z,76.9
2023-01-29T15:49:16.484Z,76.7
2023-01-29T15:50:33.516Z,76.4
2023-01-29T15:51:50.557Z,76.1
2023-01-29T15:53:07.560Z,76.5
2023-01-29T15:54:24.574Z,76.8
2023-01-29T15:55:41.520Z,76.7
2023-01-29T15:56:58.537Z,76.9
2023-01-29T15:58:15.686Z,77.2
2023-01-29T15:59:32.547Z,77.4
2023-01-29T16:00:49.755Z,77.4
2023-01-29T16:02:06.920Z,77.5
2023-01-29T16:03:23.787Z,77.3
2023-01-29T16:04:40.659Z,77.1
2023-01-29T16:05:57.602Z,76.9
2023-01-29T16:07:14.510Z,76.4
2023-01-29T16:08:31.884Z,75.9
2023-01-29T16:09:48.503Z,75.8
2023-01-29T16:11:05.612Z,75.9
2023-01-29T16:12:22.613Z,76.1
2023-01-29T16:13:39.519Z,76.3
2023-01-29T16:14:56.899Z,76.2
2023-01-29T16:16:13.654Z,75.9
2023-01-29T16:17:30.540Z,76
2023-01-29T16:18:59.167Z,76.4
2023-01-29T16:20:04.536Z,76.5
2023-01-29T16:21:21.544Z,76.8
2023-01-29T16:22:38.911Z,77.3
2023-01-29T16:23:55.597Z,77.5
2023-01-29T16:25:12.579Z,77.7
2023-01-29T16:26:29.568Z,77.9
2023-01-29T16:27:46.600Z,77.8
2023-01-29T16:29:03.556Z,77.9
2023-01-29T16:30:20.544Z,77.7
2023-01-29T16:31:37.779Z,77.5
2023-01-29T16:32:54.635Z,77.4
2023-01-29T16:34:11.586Z,77.3
2023-01-29T16:35:28.575Z,77.4
2023-01-29T16:36:45.583Z,77.8
2023-01-29T16:38:02.531Z,77.8
2023-01-29T16:39:19.589Z,77.8
2023-01-29T16:40:36.543Z,77.7
2023-01-29T16:41:53.557Z,77.2
2023-01-29T16:43:10.569Z,77.1
2023-01-29T16:44:27.570Z,77.2
2023-01-29T16:45:44.568Z,77.2
2023-01-29T16:47:01.567Z,77.1
2023-01-29T16:48:18.567Z,77.3
2023-01-29T16:49:35.597Z,77.5
2023-01-29T16:50:55.203Z,77.6
2023-01-29T16:52:09.597Z,77.9
2023-01-29T16:53:26.585Z,78.6
2023-01-29T16:54:43.565Z,79.2
2023-01-29T16:56:00.584Z,79.4
2023-01-29T16:57:17.617Z,79.6
2023-01-29T16:58:34.564Z,79.7
2023-01-29T16:59:51.637Z,79.5
2023-01-29T17:01:08.915Z,79.6
2023-01-29T17:02:25.616Z,79.9
2023-01-29T17:03:43.229Z,79.9
2023-01-29T17:05:00.573Z,79.4
2023-01-29T17:06:17.621Z,78.9
2023-01-29T17:07:34.670Z,78.1
2023-01-29T17:08:51.665Z,77.8
2023-01-29T17:10:08.592Z,77.6
2023-01-29T17:11:25.660Z,77.4